Montague, Texas
Current Conditions -  °F | °C
As of 10:55 AM on Friday 28 Nov 2014 (Local Time) from K0F2 Reporting Station
Clear Clear  
Wind Chill: 60°   Ceiling: Unl
Heat Index: 60°   Visibility: 10mi
Dew Point: 41°   Wind: 18mph
Humidity: 50%   Direction: 180°S
Pressure: 30.14"   Gusts: 23mph
Location:  33.67°N, 97.72°W
Report Text: K0F2 281655Z AUTO 18016G20KT 10SM CLR 16/05 A3014 RMK AO2 T01570052
Loading
Personal Weather Stations






























Interactive Weather Map New forecast layout! Learn more

10-Day Weather Forecast

Advertisements
Track Severe Weather on mobile